Impacts TAF Board INFO
FOR SITUATIONAL AWARENESS. NOT TO BE USED FOR FLIGHT PLANNING PURPOSES.
IDs:

KJFK - New York/Kennedy Int, NY, US

Issued at 0838 UTC 22 Feb 2018
Updated at 0846 UTC 22 Feb 2018
Potential Impact None Slight Moderate High
Time0751Z 22/09Z 22/10Z 22/11Z 22/12Z 22/13Z 22/14Z 22/15Z 22/16Z 22/17Z 22/18Z 22/19Z 22/20Z 22/21Z>>
Type OBS PRVL PRVL PRVL PRVL PRVL PRVL PRVL PRVL PRVL PRVL PRVL PRVL PRVL
  [TEMP]  
VIS 10 >6 >6 >6 >6 >6 >6 >6 >6 5 5 5 5 3
  [3]  
CIG 45 40 40 40 40 30 30 30 30 15 15 15 15 8
  [8]  
Cover OVC BKN BKN BKN BKN BKN BKN BKN BKN OVC OVC OVC OVC OVC
  [OVC]  
FltCat VFR VFR VFR VFR VFR MVFR MVFR MVFR MVFR MVFR MVFR MVFR MVFR IFR
  [IFR]  
WX -- VCSH VCSH VCSH VCSH -RA -RA -RA -RA -RA BR -RA BR -RA BR -RA BR -RA BR
  [-RA -PL]  
WDir 30 10 10 10 10 30 30 30 30 40 40 40 40 40
[40]
WSpd 12 10 10 10 10 12 12 12 12 14 14 14 14 12
  [12]  
WGst -- -- -- -- -- 18 18 18 18 21 21 21 21 18
  [18]  

Raw TAF
KJFK 220838Z 2209/2312 01010KT P6SM VCSH BKN040
  FM221300 03012G18KT P6SM -RA FEW015 BKN030
  FM221700 04014G21KT 5SM -RA BR OVC015
  FM222100 04012G18KT 3SM -RA BR OVC008
  TEMPO 2221/2224 3SM -RAPL
  FM230000 03010KT 6SM BR SCT008 OVC012
  FM230600 03008KT P6SM BKN015 OVC050


Raw METAR
KJFK 220751Z 03012KT 10SM OVC045 12/03 A3048 RMK AO2 SLP321 T01170028
KJFK 220651Z 01012KT 10SM OVC041 13/01 A3045 RMK AO2 SLP312 T01330011
KJFK 220551Z 01009KT 10SM OVC039 14/09 A3042 RMK AO2 RAB07E37 SLP302 P0000 60003 T01390089 10183 20111 53019

METAR Board
Radar Display
Forecast Discussion

FOR SITUATIONAL AWARENESS. NOT TO BE USED FOR FLIGHT PLANNING PURPOSES.